Faro Airport

LPFR | FAO

Faro , Faro , Portugal

Saturday, September 21st, 2019 | 12:34

Weather

LPFR 211130Z 16009KT 9999 FEW010 BKN022 22/20 Q1014

Charts

No Charts Available

Gates

43 Available

Runways

1 Available

Events

No events for this airport


New event